createdAt,value
2018-02-16T00:01:14.234Z,101027.52
2018-02-16T00:03:42.589Z,101028.00
2018-02-16T00:06:10.969Z,101024.42
2018-02-16T00:08:39.292Z,101028.92
2018-02-16T00:11:07.664Z,101025.77
2018-02-16T00:13:36.052Z,101022.63
2018-02-16T00:16:04.388Z,101026.19
2018-02-16T00:18:32.732Z,101028.39
2018-02-16T00:21:01.200Z,101022.33
2018-02-16T00:23:29.526Z,101023.75
2018-02-16T00:25:57.854Z,101028.06
2018-02-16T00:28:26.213Z,101042.86
2018-02-16T00:30:54.564Z,101044.17
2018-02-16T00:33:22.938Z,101048.91
2018-02-16T00:35:51.284Z,101051.03
2018-02-16T00:38:20.436Z,101053.27
2018-02-16T00:40:48.771Z,101057.22
2018-02-16T00:43:17.134Z,101055.86
2018-02-16T00:45:45.480Z,101059.23
2018-02-16T00:48:13.859Z,101067.03
2018-02-16T00:50:42.219Z,101069.64
2018-02-16T00:53:10.636Z,101053.58
2018-02-16T00:55:38.981Z,101061.55
2018-02-16T00:58:07.359Z,101062.80
2018-02-16T01:00:35.692Z,101077.92
2018-02-16T01:03:04.834Z,101069.09
2018-02-16T01:05:33.192Z,101077.42
2018-02-16T01:08:01.530Z,101081.82
2018-02-16T01:10:29.888Z,101083.49
2018-02-16T01:12:58.191Z,101083.91
2018-02-16T01:15:27.281Z,101088.27
2018-02-16T01:17:56.392Z,101087.83
2018-02-16T01:20:25.468Z,101086.06
2018-02-16T01:22:54.585Z,101079.09
2018-02-16T01:25:23.655Z,101084.47
2018-02-16T01:27:51.999Z,101084.33
2018-02-16T01:30:20.537Z,101089.16
2018-02-16T01:32:49.620Z,101083.04
2018-02-16T01:35:18.719Z,101084.01
2018-02-16T01:37:47.803Z,101079.56
2018-02-16T01:40:16.895Z,101088.91
2018-02-16T01:42:45.219Z,101087.09
2018-02-16T01:45:13.563Z,101093.63
2018-02-16T01:47:42.633Z,101093.14
2018-02-16T01:50:10.947Z,101099.41
2018-02-16T01:52:39.276Z,101094.17
2018-02-16T01:55:07.586Z,101095.52
2018-02-16T01:57:37.066Z,101096.83
2018-02-16T02:00:05.377Z,101091.96
2018-02-16T02:02:34.498Z,101093.34
2018-02-16T02:05:02.874Z,101090.80
2018-02-16T02:07:31.941Z,101105.27
2018-02-16T02:10:01.052Z,101094.05
2018-02-16T02:12:29.401Z,101104.37
2018-02-16T02:14:57.717Z,101101.31
2018-02-16T02:17:26.039Z,101110.45
2018-02-16T02:19:54.390Z,101109.13
2018-02-16T02:22:22.717Z,101116.94
2018-02-16T02:24:51.816Z,101112.63
2018-02-16T02:27:20.896Z,101117.49
2018-02-16T02:29:49.239Z,101115.34
2018-02-16T02:32:17.579Z,101117.45
2018-02-16T02:34:45.949Z,101120.14
2018-02-16T02:37:15.077Z,101123.19
2018-02-16T02:39:43.410Z,101128.41
2018-02-16T02:42:12.523Z,101130.66
2018-02-16T02:44:40.882Z,101128.95
2018-02-16T02:47:09.993Z,101131.16
2018-02-16T02:49:38.321Z,101132.53
2018-02-16T02:52:06.690Z,101135.63
2018-02-16T02:54:35.008Z,101134.37
2018-02-16T02:57:04.708Z,101134.44
2018-02-16T02:59:33.053Z,101136.66
2018-02-16T03:02:01.397Z,101144.56
2018-02-16T03:04:29.741Z,101139.83
2018-02-16T03:06:58.137Z,101137.69
2018-02-16T03:09:27.248Z,101148.15
2018-02-16T03:11:55.554Z,101137.19
2018-02-16T03:14:23.893Z,101147.65
2018-02-16T03:16:52.217Z,101158.14
2018-02-16T03:19:20.571Z,101158.59
2018-02-16T03:21:48.901Z,101154.68
2018-02-16T03:24:17.249Z,101166.13
2018-02-16T03:26:45.568Z,101165.77
2018-02-16T03:29:14.664Z,101169.74
2018-02-16T03:31:43.785Z,101174.20
2018-02-16T03:34:12.098Z,101179.37
2018-02-16T03:36:40.546Z,101182.47
2018-02-16T03:39:08.860Z,101192.86
2018-02-16T03:41:37.177Z,101196.66
2018-02-16T03:44:06.312Z,101193.30
2018-02-16T03:46:34.618Z,101189.12
2018-02-16T03:49:02.974Z,101188.41
2018-02-16T03:51:31.292Z,101189.05
2018-02-16T03:54:00.416Z,101193.45
2018-02-16T03:56:28.742Z,101199.31
2018-02-16T03:58:57.100Z,101203.41
2018-02-16T04:01:25.464Z,101208.51
2018-02-16T04:03:53.774Z,101212.64
2018-02-16T04:06:22.156Z,101215.52
2018-02-16T04:08:50.486Z,101220.66
2018-02-16T04:11:18.868Z,101222.89
2018-02-16T04:13:47.220Z,101233.64
2018-02-16T04:16:16.704Z,101238.95
2018-02-16T04:18:45.033Z,101233.03
2018-02-16T04:21:13.356Z,101239.73
2018-02-16T04:23:41.704Z,101248.11
2018-02-16T04:26:10.040Z,101249.09
2018-02-16T04:28:38.389Z,101240.52
2018-02-16T04:31:06.746Z,101243.55
2018-02-16T04:33:35.050Z,101249.23
2018-02-16T04:36:04.172Z,101259.09
2018-02-16T04:38:32.488Z,101256.19
2018-02-16T04:41:00.839Z,101257.14
2018-02-16T04:43:29.230Z,101251.48
2018-02-16T04:45:57.538Z,101250.42
2018-02-16T04:48:25.856Z,101264.59
2018-02-16T04:50:54.207Z,101267.03
2018-02-16T04:53:22.531Z,101276.20
2018-02-16T04:55:50.875Z,101270.89
2018-02-16T04:58:19.960Z,101279.11
2018-02-16T05:00:48.324Z,101282.03
2018-02-16T05:03:16.631Z,101289.94
2018-02-16T05:05:45.012Z,101289.53
2018-02-16T05:08:13.359Z,101293.38
2018-02-16T05:10:41.680Z,101295.00
2018-02-16T05:13:10.017Z,101303.09
2018-02-16T05:15:38.365Z,101306.83
2018-02-16T05:18:06.712Z,101311.20
2018-02-16T05:20:35.022Z,101310.50
2018-02-16T05:23:03.314Z,101311.05
2018-02-16T05:25:31.665Z,101320.75
2018-02-16T05:27:59.984Z,101321.14
2018-02-16T05:30:28.341Z,101318.50
2018-02-16T05:32:56.667Z,101318.77
2018-02-16T05:35:25.002Z,101326.25
2018-02-16T05:37:54.280Z,101330.63
2018-02-16T05:40:23.560Z,101330.32
2018-02-16T05:42:51.920Z,101333.86
2018-02-16T05:45:20.234Z,101342.14
2018-02-16T05:47:48.601Z,101343.19
2018-02-16T05:50:16.935Z,101351.70
2018-02-16T05:52:46.050Z,101353.66
2018-02-16T05:55:14.419Z,101349.72
2018-02-16T05:57:42.745Z,101357.15
2018-02-16T06:00:12.489Z,101379.64
2018-02-16T06:02:40.907Z,101373.75
2018-02-16T06:05:09.241Z,101379.55
2018-02-16T06:07:38.370Z,101385.63
2018-02-16T06:10:06.713Z,101384.52
2018-02-16T06:12:35.850Z,101391.12
2018-02-16T06:15:04.187Z,101392.59
2018-02-16T06:17:33.335Z,101389.47
2018-02-16T06:20:01.660Z,101394.20
2018-02-16T06:22:30.750Z,101398.42
2018-02-16T06:24:59.099Z,101398.56
2018-02-16T06:27:27.413Z,101404.02
2018-02-16T06:29:55.782Z,101401.61
2018-02-16T06:32:24.180Z,101406.72
2018-02-16T06:34:53.291Z,101407.05
2018-02-16T06:37:21.647Z,101419.39
2018-02-16T06:39:50.775Z,101422.30
2018-02-16T06:42:19.150Z,101409.23
2018-02-16T06:44:47.479Z,101426.34
2018-02-16T06:47:15.868Z,101425.62
2018-02-16T06:49:44.963Z,101427.64
2018-02-16T06:52:14.671Z,101430.84
2018-02-16T06:54:43.753Z,101418.72
2018-02-16T06:57:12.112Z,101435.04
2018-02-16T06:59:40.462Z,101432.53
2018-02-16T07:02:08.824Z,101430.61
2018-02-16T07:04:37.263Z,101437.44
2018-02-16T07:07:05.589Z,101438.30
2018-02-16T07:09:33.953Z,101431.34
2018-02-16T07:12:03.124Z,101435.54
2018-02-16T07:14:31.430Z,101446.09
2018-02-16T07:16:59.733Z,101449.80
2018-02-16T07:19:28.065Z,101445.10
2018-02-16T07:21:57.154Z,101451.36
2018-02-16T07:24:25.503Z,101450.63
2018-02-16T07:26:53.850Z,101461.70
2018-02-16T07:29:22.149Z,101467.53
2018-02-16T07:31:50.509Z,101472.91
2018-02-16T07:34:18.823Z,101473.11
2018-02-16T07:36:47.191Z,101473.58
2018-02-16T07:39:15.506Z,101473.31
2018-02-16T07:41:44.629Z,101479.66
2018-02-16T07:44:12.985Z,101482.84
2018-02-16T07:46:42.066Z,101489.92
2018-02-16T07:49:11.270Z,101487.14
2018-02-16T07:51:40.506Z,101495.17
2018-02-16T07:54:08.870Z,101495.31
2018-02-16T07:56:37.180Z,101498.95
2018-02-16T07:59:05.526Z,101502.19
2018-02-16T08:01:33.866Z,101509.61
2018-02-16T08:04:02.197Z,101502.75
2018-02-16T08:06:30.529Z,101508.56
2018-02-16T08:08:59.656Z,101515.35
2018-02-16T08:11:27.993Z,101511.53
2018-02-16T08:13:57.110Z,101518.28
2018-02-16T08:16:25.442Z,101517.59
2018-02-16T08:18:53.786Z,101523.46
2018-02-16T08:21:22.106Z,101522.75
2018-02-16T08:23:50.420Z,101518.95
2018-02-16T08:26:18.771Z,101522.27
2018-02-16T08:28:47.100Z,101523.51
2018-02-16T08:31:15.434Z,101516.03
2018-02-16T08:33:44.520Z,101526.59
2018-02-16T08:36:12.882Z,101528.48
2018-02-16T08:38:41.222Z,101524.77
2018-02-16T08:41:09.591Z,101526.13
2018-02-16T08:43:37.970Z,101534.92
2018-02-16T08:46:06.289Z,101543.02
2018-02-16T08:48:34.632Z,101551.05
2018-02-16T08:51:02.945Z,101551.59
2018-02-16T08:53:31.302Z,101556.03
2018-02-16T08:55:59.622Z,101560.14
2018-02-16T08:58:28.759Z,101553.72
2018-02-16T09:00:57.060Z,101556.97
2018-02-16T09:03:25.494Z,101555.39
2018-02-16T09:05:53.848Z,101561.28
2018-02-16T09:08:22.198Z,101560.89
2018-02-16T09:10:50.519Z,101562.53
2018-02-16T09:13:18.882Z,101559.55
2018-02-16T09:15:47.255Z,101563.46
2018-02-16T09:18:15.966Z,101567.09
2018-02-16T09:20:44.277Z,101570.27
2018-02-16T09:23:12.646Z,101567.30
2018-02-16T09:25:40.957Z,101574.02
2018-02-16T09:28:09.343Z,101572.77
2018-02-16T09:30:37.667Z,101561.81
2018-02-16T09:33:06.020Z,101582.63
2018-02-16T09:35:36.749Z,101582.33
2018-02-16T09:38:05.136Z,101574.91
2018-02-16T09:40:34.222Z,101581.23
2018-02-16T09:43:03.321Z,101587.44
2018-02-16T09:45:32.395Z,101583.20
2018-02-16T09:48:00.796Z,101581.09
2018-02-16T09:50:29.926Z,101574.66
2018-02-16T09:52:58.250Z,101576.13
2018-02-16T09:55:26.617Z,101575.70
2018-02-16T09:57:54.925Z,101577.58
2018-02-16T10:00:24.018Z,101582.11
2018-02-16T10:02:53.117Z,101581.25
2018-02-16T10:05:22.236Z,101584.98
2018-02-16T10:07:54.796Z,101587.61
2018-02-16T10:10:23.184Z,101591.69
2018-02-16T10:12:51.535Z,101588.23
2018-02-16T10:15:19.886Z,101588.81
2018-02-16T10:17:48.394Z,101601.23
2018-02-16T10:20:17.534Z,101601.67
2018-02-16T10:22:45.866Z,101606.09
2018-02-16T10:25:14.214Z,101605.73
2018-02-16T10:27:42.521Z,101599.33
2018-02-16T10:30:11.648Z,101603.28
2018-02-16T10:32:39.959Z,101605.91
2018-02-16T10:35:08.311Z,101609.10
2018-02-16T10:37:37.410Z,101608.36
2018-02-16T10:40:05.731Z,101604.44
2018-02-16T10:42:34.111Z,101608.42
2018-02-16T10:45:02.421Z,101601.52
2018-02-16T10:47:31.134Z,101604.23
2018-02-16T10:49:59.501Z,101604.36
2018-02-16T10:52:27.816Z,101606.66
2018-02-16T10:54:56.137Z,101601.34
2018-02-16T10:57:24.493Z,101583.77
2018-02-16T10:59:53.576Z,101601.06
2018-02-16T11:02:27.365Z,101603.24
2018-02-16T11:05:01.174Z,101602.45
2018-02-16T11:07:35.125Z,101598.96
2018-02-16T11:10:03.467Z,101601.67
2018-02-16T11:12:31.774Z,101597.27
2018-02-16T11:15:00.933Z,101603.41
2018-02-16T11:17:29.287Z,101602.14
2018-02-16T11:19:57.611Z,101610.14
2018-02-16T11:22:26.738Z,101599.34
2018-02-16T11:24:55.133Z,101605.52
2018-02-16T11:27:23.467Z,101611.23
2018-02-16T11:29:52.643Z,101603.78
2018-02-16T11:32:20.951Z,101603.78
2018-02-16T11:34:51.015Z,101611.73
2018-02-16T11:37:19.332Z,101616.18
2018-02-16T11:39:48.446Z,101617.95
2018-02-16T11:42:16.803Z,101624.10
2018-02-16T11:44:45.188Z,101621.52
2018-02-16T11:47:14.308Z,101620.27
2018-02-16T11:49:42.676Z,101625.12
2018-02-16T11:52:10.983Z,101622.52
2018-02-16T11:54:39.284Z,101612.52
2018-02-16T11:57:07.614Z,101617.33
2018-02-16T11:59:35.918Z,101621.28
2018-02-16T12:02:04.243Z,101616.00
2018-02-16T12:04:33.325Z,101617.76
2018-02-16T12:07:01.679Z,101596.23
2018-02-16T12:09:30.029Z,101605.12
2018-02-16T12:11:58.350Z,101606.46
2018-02-16T12:14:26.687Z,101616.02
2018-02-16T12:16:55.004Z,101616.91
2018-02-16T12:19:23.347Z,101618.22
2018-02-16T12:21:51.700Z,101616.44
2018-02-16T12:24:20.050Z,101612.59
2018-02-16T12:26:48.404Z,101615.72
2018-02-16T12:29:16.794Z,101615.81
2018-02-16T12:31:45.111Z,101614.05
2018-02-16T12:34:13.403Z,101609.66
2018-02-16T12:36:41.756Z,101614.03
2018-02-16T12:39:10.073Z,101618.90
2018-02-16T12:41:38.382Z,101610.61
2018-02-16T12:44:06.738Z,101616.36
2018-02-16T12:46:35.090Z,101614.62
2018-02-16T12:49:03.403Z,101611.98
2018-02-16T12:51:31.728Z,101610.66
2018-02-16T12:54:00.131Z,101606.30
2018-02-16T12:56:28.876Z,101609.91
2018-02-16T12:58:57.942Z,101613.89
2018-02-16T13:01:26.293Z,101612.56
2018-02-16T13:03:54.613Z,101623.56
2018-02-16T13:06:23.753Z,101618.75
2018-02-16T13:08:52.073Z,101617.01
2018-02-16T13:11:20.402Z,101612.19
2018-02-16T13:13:48.743Z,101615.69
2018-02-16T13:16:17.821Z,101622.75
2018-02-16T13:18:46.171Z,101616.99
2018-02-16T13:21:14.545Z,101617.42
2018-02-16T13:23:42.911Z,101615.68
2018-02-16T13:26:12.104Z,101623.63
2018-02-16T13:28:40.446Z,101619.67
2018-02-16T13:31:09.575Z,101614.36
2018-02-16T13:33:37.896Z,101619.65
2018-02-16T13:36:06.312Z,101601.98
2018-02-16T13:38:34.708Z,101607.26
2018-02-16T13:41:03.068Z,101615.23
2018-02-16T13:43:32.803Z,101616.59
2018-02-16T13:46:02.029Z,101620.11
2018-02-16T13:48:30.363Z,101622.27
2018-02-16T13:50:59.130Z,101619.64
2018-02-16T13:53:28.229Z,101619.23
2018-02-16T13:55:57.365Z,101618.80
2018-02-16T13:58:25.674Z,101631.56
2018-02-16T14:00:54.048Z,101630.16
2018-02-16T14:03:22.354Z,101643.61
2018-02-16T14:05:51.506Z,101649.12
2018-02-16T14:08:20.552Z,101648.55
2018-02-16T14:10:49.235Z,101655.88
2018-02-16T14:13:19.049Z,101657.97
2018-02-16T14:15:48.232Z,101656.58
2018-02-16T14:18:18.195Z,101660.86
2018-02-16T14:20:47.399Z,101663.86
2018-02-16T14:23:16.074Z,101669.42
2018-02-16T14:25:44.449Z,101666.75
2018-02-16T14:28:13.018Z,101670.72
2018-02-16T14:30:41.537Z,101666.25
2018-02-16T14:33:09.915Z,101670.22
2018-02-16T14:35:38.244Z,101671.99
2018-02-16T14:38:07.480Z,101671.53
2018-02-16T14:40:35.849Z,101676.45
2018-02-16T14:43:04.230Z,101672.11
2018-02-16T14:45:32.874Z,101674.70
2018-02-16T14:48:01.286Z,101672.46
2018-02-16T14:50:29.779Z,101674.13
2018-02-16T14:53:02.504Z,101679.75
2018-02-16T14:55:30.684Z,101685.80
2018-02-16T14:58:00.679Z,101690.15
2018-02-16T15:00:29.133Z,101693.14
2018-02-16T15:02:57.659Z,101696.17
2018-02-16T15:05:26.087Z,101696.02
2018-02-16T15:07:55.247Z,101703.34
2018-02-16T15:10:23.611Z,101693.36
2018-02-16T15:12:51.979Z,101699.94
2018-02-16T15:15:21.972Z,101709.02
2018-02-16T15:17:51.207Z,101702.94
2018-02-16T15:20:20.311Z,101711.20
2018-02-16T15:22:50.225Z,101711.11
2018-02-16T15:25:19.531Z,101713.62
2018-02-16T15:27:49.814Z,101715.28
2018-02-16T15:30:18.172Z,101714.77
2018-02-16T15:32:46.517Z,101711.65
2018-02-16T15:35:15.213Z,101718.38
2018-02-16T15:37:43.595Z,101723.62
2018-02-16T15:40:12.919Z,101728.30
2018-02-16T15:42:41.496Z,101735.43
2018-02-16T15:45:10.246Z,101730.48
2018-02-16T15:47:38.594Z,101740.80
2018-02-16T15:50:07.068Z,101741.97
2018-02-16T15:52:35.453Z,101744.84
2018-02-16T15:55:03.775Z,101746.99
2018-02-16T15:57:33.008Z,101749.21
2018-02-16T16:00:01.405Z,101756.15
2018-02-16T16:02:30.850Z,101759.55
2018-02-16T16:05:00.100Z,101769.45
2018-02-16T16:07:28.481Z,101765.97
2018-02-16T16:09:59.400Z,101764.48
2018-02-16T16:12:28.134Z,101767.02
2018-02-16T16:14:56.449Z,101777.39
2018-02-16T16:17:25.622Z,101777.78
2018-02-16T16:19:54.163Z,101779.09
2018-02-16T16:22:22.747Z,101781.55
2018-02-16T16:24:51.140Z,101782.80
2018-02-16T16:27:20.332Z,101788.27
2018-02-16T16:29:48.681Z,101789.25
2018-02-16T16:32:19.039Z,101791.41
2018-02-16T16:34:47.436Z,101795.09
2018-02-16T16:37:15.850Z,101804.17
2018-02-16T16:39:44.235Z,101807.70
2018-02-16T16:42:12.600Z,101801.58
2018-02-16T16:44:40.921Z,101810.20
2018-02-16T16:47:09.268Z,101812.17
2018-02-16T16:49:37.590Z,101817.08
2018-02-16T16:52:06.707Z,101819.59
2018-02-16T16:54:35.030Z,101822.69
2018-02-16T16:57:03.361Z,101831.06
2018-02-16T16:59:31.688Z,101836.68
2018-02-16T17:02:00.053Z,101841.97
2018-02-16T17:04:28.386Z,101839.86
2018-02-16T17:06:56.694Z,101845.36
2018-02-16T17:09:25.106Z,101849.73
2018-02-16T17:11:54.590Z,101852.59
2018-02-16T17:14:24.140Z,101857.20
2018-02-16T17:16:53.887Z,101860.36
2018-02-16T17:19:22.310Z,101863.02
2018-02-16T17:21:50.692Z,101865.97
2018-02-16T17:24:19.024Z,101867.63
2018-02-16T17:26:48.191Z,101869.34
2018-02-16T17:29:16.542Z,101871.33
2018-02-16T17:31:45.648Z,101870.95
2018-02-16T17:34:15.098Z,101873.04
2018-02-16T17:36:43.426Z,101876.08
2018-02-16T17:39:12.518Z,101882.16
2018-02-16T17:41:41.644Z,101881.27
2018-02-16T17:44:09.946Z,101880.91
2018-02-16T17:46:38.291Z,101888.17
2018-02-16T17:49:06.652Z,101881.18
2018-02-16T17:51:35.837Z,101881.30
2018-02-16T17:54:04.206Z,101884.86
2018-02-16T17:56:32.533Z,101892.37
2018-02-16T17:59:01.538Z,101889.20
2018-02-16T18:01:29.878Z,101889.86
2018-02-16T18:03:58.966Z,101889.56
2018-02-16T18:06:28.093Z,101886.45
2018-02-16T18:08:56.813Z,101891.70
2018-02-16T18:11:25.161Z,101892.30
2018-02-16T18:13:54.270Z,101883.96
2018-02-16T18:16:22.646Z,101883.70
2018-02-16T18:18:51.760Z,101885.54
2018-02-16T18:21:20.092Z,101895.73
2018-02-16T18:23:48.443Z,101890.73
2018-02-16T18:26:16.831Z,101895.66
2018-02-16T18:28:45.913Z,101890.77
2018-02-16T18:31:14.241Z,101892.58
2018-02-16T18:33:42.702Z,101882.62
2018-02-16T18:36:11.053Z,101889.26
2018-02-16T18:38:40.194Z,101894.30
2018-02-16T18:41:08.538Z,101894.15
2018-02-16T18:43:37.641Z,101891.00
2018-02-16T18:46:06.790Z,101886.83
2018-02-16T18:48:35.112Z,101887.38
2018-02-16T18:51:03.582Z,101886.91
2018-02-16T18:53:32.310Z,101895.89
2018-02-16T18:56:00.657Z,101898.53
2018-02-16T18:58:29.790Z,101895.02
2018-02-16T19:00:58.155Z,101897.73
2018-02-16T19:03:27.315Z,101898.27
2018-02-16T19:05:56.437Z,101902.61
2018-02-16T19:08:25.570Z,101899.39
2018-02-16T19:10:54.739Z,101904.33
2018-02-16T19:13:23.055Z,101905.95
2018-02-16T19:15:51.404Z,101907.52
2018-02-16T19:18:19.726Z,101903.56
2018-02-16T19:20:48.101Z,101906.72
2018-02-16T19:23:16.466Z,101903.28
2018-02-16T19:25:44.805Z,101908.81
2018-02-16T19:28:13.198Z,101913.94
2018-02-16T19:30:41.525Z,101925.66
2018-02-16T19:33:10.348Z,101922.77
2018-02-16T19:35:39.329Z,101923.53
2018-02-16T19:38:07.734Z,101928.67
2018-02-16T19:40:36.051Z,101925.17
2018-02-16T19:43:05.186Z,101924.33
2018-02-16T19:45:34.128Z,101927.56
2018-02-16T19:48:03.301Z,101925.00
2018-02-16T19:50:31.641Z,101930.77
2018-02-16T19:52:59.974Z,101933.81
2018-02-16T19:55:28.727Z,101932.20
2018-02-16T19:57:57.100Z,101931.59
2018-02-16T20:00:25.436Z,101935.66
2018-02-16T20:02:54.568Z,101938.23
2018-02-16T20:05:23.507Z,101940.42
2018-02-16T20:07:52.244Z,101942.88
2018-02-16T20:10:20.620Z,101945.31
2018-02-16T20:12:49.740Z,101942.45
2018-02-16T20:15:18.129Z,101948.25
2018-02-16T20:17:46.560Z,101951.41
2018-02-16T20:20:16.152Z,101946.93
2018-02-16T20:22:46.009Z,101945.93
2018-02-16T20:25:14.359Z,101942.91
2018-02-16T20:27:42.748Z,101944.55
2018-02-16T20:30:12.116Z,101947.52
2018-02-16T20:32:41.241Z,101948.95
2018-02-16T20:35:10.257Z,101945.94
2018-02-16T20:37:38.589Z,101950.50
2018-02-16T20:40:06.999Z,101949.27
2018-02-16T20:42:36.000Z,101951.62
2018-02-16T20:45:06.433Z,101951.51
2018-02-16T20:47:35.662Z,101956.23
2018-02-16T20:50:04.039Z,101960.41
2018-02-16T20:52:32.382Z,101962.00
2018-02-16T20:55:00.758Z,101969.59
2018-02-16T20:57:29.748Z,101970.34
2018-02-16T20:59:58.532Z,101966.77
2018-02-16T21:02:26.846Z,101971.16
2018-02-16T21:04:56.010Z,101963.80
2018-02-16T21:07:24.798Z,101972.75
2018-02-16T21:09:54.096Z,101969.73
2018-02-16T21:12:23.362Z,101972.16
2018-02-16T21:14:52.480Z,101975.80
2018-02-16T21:17:20.788Z,101974.73
2018-02-16T21:19:49.128Z,101974.65
2018-02-16T21:22:17.482Z,101971.78
2018-02-16T21:24:46.580Z,101973.09
2018-02-16T21:27:15.720Z,101975.43
2018-02-16T21:29:44.094Z,101980.04
2018-02-16T21:32:12.873Z,101981.01
2018-02-16T21:34:41.241Z,101978.66
2018-02-16T21:37:09.567Z,101983.57
2018-02-16T21:39:37.892Z,101981.19
2018-02-16T21:42:07.188Z,101986.03
2018-02-16T21:44:35.517Z,101988.70
2018-02-16T21:47:03.866Z,101984.83
2018-02-16T21:49:32.244Z,101978.95
2018-02-16T21:52:00.596Z,101977.50
2018-02-16T21:54:31.518Z,101982.66
2018-02-16T21:57:00.632Z,101984.64
2018-02-16T21:59:29.336Z,101983.19
2018-02-16T22:01:58.593Z,101978.72
2018-02-16T22:04:27.038Z,101984.03
2018-02-16T22:06:55.370Z,101983.95
2018-02-16T22:09:25.241Z,101979.41
2018-02-16T22:11:56.644Z,101980.19
2018-02-16T22:14:24.986Z,101982.09
2018-02-16T22:16:54.096Z,101979.58
2018-02-16T22:19:22.524Z,101981.36
2018-02-16T22:21:51.615Z,101980.25
2018-02-16T22:24:19.938Z,101982.92
2018-02-16T22:26:49.373Z,101982.41
2018-02-16T22:29:17.702Z,101983.33
2018-02-16T22:31:46.092Z,101983.81
2018-02-16T22:34:14.454Z,101975.83
2018-02-16T22:36:43.120Z,101981.66
2018-02-16T22:39:11.453Z,101981.38
2018-02-16T22:41:44.041Z,101973.75
2018-02-16T22:44:12.416Z,101982.22
2018-02-16T22:46:40.767Z,101983.84
2018-02-16T22:49:09.134Z,101983.42
2018-02-16T22:51:39.293Z,101981.34
2018-02-16T22:54:07.697Z,101981.75
2018-02-16T22:56:36.094Z,101984.01
2018-02-16T22:59:06.867Z,101979.21
2018-02-16T23:01:37.588Z,101977.76
2018-02-16T23:04:06.134Z,101979.93
2018-02-16T23:06:34.972Z,101982.16
2018-02-16T23:09:03.503Z,101982.55
2018-02-16T23:11:33.526Z,101977.44
2018-02-16T23:14:22.723Z,101975.17
2018-02-16T23:16:51.113Z,101977.38
2018-02-16T23:19:20.224Z,101981.80
2018-02-16T23:21:48.887Z,101985.83
2018-02-16T23:24:18.042Z,101987.98
2018-02-16T23:26:46.377Z,101983.00
2018-02-16T23:29:15.497Z,101982.06
2018-02-16T23:31:44.806Z,101977.27
2018-02-16T23:34:13.144Z,101981.79
2018-02-16T23:36:42.251Z,101981.56
2018-02-16T23:39:10.631Z,101975.33
2018-02-16T23:41:38.994Z,101975.70
2018-02-16T23:44:08.084Z,101978.88
2018-02-16T23:46:36.398Z,101976.70
2018-02-16T23:49:04.750Z,101972.35
2018-02-16T23:51:33.115Z,101973.01
2018-02-16T23:54:01.444Z,101970.73
2018-02-16T23:56:30.589Z,101981.95
2018-02-16T23:58:58.948Z,101983.45
